createdAt,value
2018-04-15T00:01:36.475Z,59.60
2018-04-15T00:04:09.065Z,32.30
2018-04-15T00:06:41.559Z,28.50
2018-04-15T00:09:14.079Z,52.43
2018-04-15T00:11:47.107Z,45.47
2018-04-15T00:14:19.637Z,55.27
2018-04-15T00:16:52.143Z,50.77
2018-04-15T00:19:24.695Z,27.90
2018-04-15T00:21:57.220Z,27.57
2018-04-15T00:24:29.751Z,35.17
2018-04-15T00:27:02.280Z,41.27
2018-04-15T00:29:34.828Z,29.33
2018-04-15T00:32:07.327Z,55.43
2018-04-15T00:34:39.898Z,36.17
2018-04-15T00:37:12.458Z,30.70
2018-04-15T00:39:45.117Z,25.20
2018-04-15T00:42:18.369Z,39.83
2018-04-15T00:44:50.973Z,29.70
2018-04-15T00:47:23.514Z,27.60
2018-04-15T00:49:56.066Z,24.40
2018-04-15T00:52:28.604Z,28.00
2018-04-15T00:55:01.203Z,45.20
2018-04-15T00:57:33.746Z,51.33
2018-04-15T01:00:06.305Z,29.63
2018-04-15T01:02:38.875Z,32.83
2018-04-15T01:05:12.017Z,27.70
2018-04-15T01:07:44.602Z,50.20
2018-04-15T01:10:17.984Z,64.00
2018-04-15T01:12:50.511Z,49.83
2018-04-15T01:15:23.229Z,31.07
2018-04-15T01:17:55.806Z,34.57
2018-04-15T01:20:28.353Z,25.63
2018-04-15T01:23:00.894Z,31.80
2018-04-15T01:25:33.452Z,31.67
2018-04-15T01:28:06.143Z,32.53
2018-04-15T01:30:38.733Z,21.67
2018-04-15T01:33:11.289Z,48.57
2018-04-15T01:35:43.846Z,66.97
2018-04-15T01:38:16.404Z,31.93
2018-04-15T01:40:48.963Z,22.63
2018-04-15T01:43:21.479Z,39.03
2018-04-15T01:45:54.042Z,29.47
2018-04-15T01:48:26.579Z,51.87
2018-04-15T01:50:59.131Z,33.03
2018-04-15T01:53:31.653Z,22.10
2018-04-15T01:56:04.207Z,46.47
2018-04-15T01:58:36.743Z,72.37
2018-04-15T02:01:09.304Z,43.70
2018-04-15T02:03:41.861Z,22.63
2018-04-15T02:06:14.387Z,40.03
2018-04-15T02:08:46.946Z,33.20
2018-04-15T02:11:19.488Z,48.77
2018-04-15T02:13:52.041Z,34.87
2018-04-15T02:16:24.579Z,36.73
2018-04-15T02:18:57.132Z,19.97
2018-04-15T02:21:29.650Z,22.70
2018-04-15T02:24:02.217Z,28.30
2018-04-15T02:26:34.739Z,19.43
2018-04-15T02:29:07.295Z,23.90
2018-04-15T02:31:39.887Z,34.53
2018-04-15T02:34:12.527Z,17.57
2018-04-15T02:36:45.044Z,17.00
2018-04-15T02:39:17.605Z,18.63
2018-04-15T02:41:50.143Z,18.50
2018-04-15T02:44:22.765Z,28.57
2018-04-15T02:46:55.319Z,20.43
2018-04-15T02:49:27.884Z,20.03
2018-04-15T02:52:00.423Z,18.13
2018-04-15T02:54:32.978Z,17.77
2018-04-15T02:57:05.514Z,19.57
2018-04-15T02:59:38.084Z,37.83
2018-04-15T03:02:10.603Z,19.37
2018-04-15T03:04:43.162Z,18.67
2018-04-15T03:07:15.886Z,41.43
2018-04-15T03:09:48.431Z,59.60
2018-04-15T03:12:20.958Z,63.07
2018-04-15T03:14:53.703Z,50.57
2018-04-15T03:17:26.227Z,24.03
2018-04-15T03:19:58.795Z,35.37
2018-04-15T03:22:32.011Z,18.77
2018-04-15T03:25:04.571Z,22.60
2018-04-15T03:27:37.100Z,17.63
2018-04-15T03:30:09.652Z,16.23
2018-04-15T03:32:42.186Z,24.03
2018-04-15T03:35:14.746Z,20.27
2018-04-15T03:37:47.258Z,21.00
2018-04-15T03:40:19.811Z,23.87
2018-04-15T03:42:52.363Z,32.03
2018-04-15T03:45:24.931Z,48.63
2018-04-15T03:47:57.530Z,35.00
2018-04-15T03:50:30.081Z,21.70
2018-04-15T03:53:02.616Z,24.77
2018-04-15T03:55:35.177Z,30.47
2018-04-15T03:58:07.703Z,27.07
2018-04-15T04:00:40.269Z,28.33
2018-04-15T04:03:12.793Z,17.67
2018-04-15T04:05:45.362Z,16.57
2018-04-15T04:08:18.078Z,20.37
2018-04-15T04:10:50.628Z,31.83
2018-04-15T04:13:23.173Z,21.57
2018-04-15T04:15:55.736Z,27.10
2018-04-15T04:18:40.127Z,26.57
2018-04-15T04:21:24.633Z,18.03
2018-04-15T04:24:09.012Z,27.40
2018-04-15T04:26:41.571Z,16.97
2018-04-15T04:29:14.143Z,21.60
2018-04-15T04:31:46.692Z,37.97
2018-04-15T04:34:19.230Z,18.10
2018-04-15T04:36:51.796Z,49.53
2018-04-15T04:39:24.335Z,24.53
2018-04-15T04:41:56.968Z,21.97
2018-04-15T04:44:29.502Z,23.23
2018-04-15T04:47:02.055Z,20.33
2018-04-15T04:49:34.584Z,35.90
2018-04-15T04:52:07.161Z,33.93
2018-04-15T04:54:39.675Z,51.17
2018-04-15T04:57:12.252Z,45.33
2018-04-15T04:59:44.779Z,25.50
2018-04-15T05:02:17.340Z,20.13
2018-04-15T05:04:49.875Z,24.37
2018-04-15T05:07:22.407Z,23.57
2018-04-15T05:09:54.935Z,27.97
2018-04-15T05:12:27.530Z,29.90
2018-04-15T05:15:00.064Z,20.47
2018-04-15T05:17:32.673Z,38.40
2018-04-15T05:20:05.184Z,20.17
2018-04-15T05:22:37.739Z,18.10
2018-04-15T05:25:10.280Z,38.70
2018-04-15T05:27:42.839Z,24.33
2018-04-15T05:30:15.433Z,25.50
2018-04-15T05:32:47.968Z,21.43
2018-04-15T05:35:20.560Z,22.90
2018-04-15T05:37:53.234Z,18.90
2018-04-15T05:40:25.928Z,25.27
2018-04-15T05:42:58.609Z,36.20
2018-04-15T05:45:31.171Z,23.57
2018-04-15T05:48:03.709Z,23.97
2018-04-15T05:50:36.449Z,32.03
2018-04-15T05:53:08.984Z,23.20
2018-04-15T05:55:41.652Z,26.37
2018-04-15T05:58:14.192Z,26.93
2018-04-15T06:00:46.751Z,24.37
2018-04-15T06:03:19.262Z,25.03
2018-04-15T06:05:51.896Z,28.80
2018-04-15T06:08:24.427Z,24.47
2018-04-15T06:10:56.984Z,22.63
2018-04-15T06:13:29.520Z,28.00
2018-04-15T06:16:02.084Z,36.00
2018-04-15T06:18:34.633Z,44.40
2018-04-15T06:21:07.192Z,25.33
2018-04-15T06:23:39.725Z,24.73
2018-04-15T06:26:12.275Z,42.60
2018-04-15T06:28:44.831Z,27.10
2018-04-15T06:31:17.382Z,35.43
2018-04-15T06:33:49.907Z,29.37
2018-04-15T06:36:22.459Z,36.30
2018-04-15T06:38:54.993Z,35.90
2018-04-15T06:41:27.540Z,29.87
2018-04-15T06:44:00.083Z,32.20
2018-04-15T06:46:32.647Z,34.37
2018-04-15T06:49:05.252Z,36.50
2018-04-15T06:51:37.808Z,36.77
2018-04-15T06:54:10.374Z,40.43
2018-04-15T06:56:42.937Z,48.70
2018-04-15T06:59:15.596Z,53.97
2018-04-15T07:01:48.871Z,57.27
2018-04-15T07:04:21.415Z,50.57
2018-04-15T07:06:54.075Z,44.43
2018-04-15T07:09:26.599Z,46.27
2018-04-15T07:11:59.168Z,51.03
2018-04-15T07:14:31.701Z,46.00
2018-04-15T07:17:04.281Z,49.33
2018-04-15T07:19:36.826Z,43.23
2018-04-15T07:22:09.390Z,55.73
2018-04-15T07:24:41.930Z,56.87
2018-04-15T07:27:14.504Z,93.23
2018-04-15T07:29:47.031Z,70.73
2018-04-15T07:32:19.610Z,78.20
2018-04-15T07:34:52.145Z,63.50
2018-04-15T07:37:24.715Z,76.20
2018-04-15T07:39:57.253Z,58.93
2018-04-15T07:42:29.818Z,74.63
2018-04-15T07:45:02.351Z,71.40
2018-04-15T07:47:34.916Z,76.80
2018-04-15T07:50:07.441Z,66.37
2018-04-15T07:52:40.314Z,61.57
2018-04-15T07:55:12.860Z,54.00
2018-04-15T07:57:45.437Z,45.83
2018-04-15T08:00:18.028Z,50.27
2018-04-15T08:02:50.604Z,47.17
2018-04-15T08:05:23.132Z,48.97
2018-04-15T08:07:55.742Z,50.53
2018-04-15T08:10:28.279Z,48.17
2018-04-15T08:13:00.840Z,48.53
2018-04-15T08:15:33.384Z,49.37
2018-04-15T08:18:05.943Z,45.93
2018-04-15T08:20:38.478Z,56.10
2018-04-15T08:23:11.038Z,47.80
2018-04-15T08:25:43.575Z,57.90
2018-04-15T08:28:16.183Z,53.87
2018-04-15T08:30:48.719Z,48.43
2018-04-15T08:33:21.315Z,64.00
2018-04-15T08:35:53.854Z,49.30
2018-04-15T08:38:26.405Z,43.10
2018-04-15T08:40:58.927Z,42.50
2018-04-15T08:43:31.510Z,51.57
2018-04-15T08:46:04.058Z,46.90
2018-04-15T08:48:36.617Z,59.57
2018-04-15T08:51:09.151Z,52.83
2018-04-15T08:53:41.712Z,49.03
2018-04-15T08:56:14.253Z,49.13
2018-04-15T08:58:46.840Z,43.90
2018-04-15T09:01:19.396Z,46.37
2018-04-15T09:03:52.541Z,50.00
2018-04-15T09:06:25.233Z,53.70
2018-04-15T09:08:57.795Z,47.40
2018-04-15T09:11:30.371Z,54.37
2018-04-15T09:14:02.922Z,50.63
2018-04-15T09:16:35.466Z,46.73
2018-04-15T09:19:08.023Z,54.43
2018-04-15T09:21:40.560Z,53.90
2018-04-15T09:24:13.153Z,63.60
2018-04-15T09:26:45.828Z,53.17
2018-04-15T09:29:18.412Z,65.50
2018-04-15T09:31:50.989Z,53.53
2018-04-15T09:34:23.531Z,50.83
2018-04-15T09:36:56.109Z,62.57
2018-04-15T09:39:28.731Z,53.40
2018-04-15T09:42:01.328Z,61.87
2018-04-15T09:44:33.852Z,56.77
2018-04-15T09:47:06.383Z,60.37
2018-04-15T09:49:38.984Z,62.63
2018-04-15T09:52:11.561Z,66.53
2018-04-15T09:54:44.147Z,62.40
2018-04-15T09:57:16.755Z,60.23
2018-04-15T09:59:49.319Z,68.87
2018-04-15T10:02:21.849Z,61.50
2018-04-15T10:04:54.351Z,60.50
2018-04-15T10:07:26.911Z,48.30
2018-04-15T10:09:59.416Z,46.77
2018-04-15T10:12:32.043Z,50.50
2018-04-15T10:15:04.592Z,53.10
2018-04-15T10:17:37.119Z,49.30
2018-04-15T10:20:09.640Z,45.43
2018-04-15T10:22:42.265Z,46.27
2018-04-15T10:25:14.876Z,51.57
2018-04-15T10:27:47.408Z,58.27
2018-04-15T10:30:19.917Z,53.00
2018-04-15T10:32:52.441Z,61.10
2018-04-15T10:35:24.944Z,54.77
2018-04-15T10:37:57.472Z,62.17
2018-04-15T10:40:29.976Z,54.67
2018-04-15T10:43:02.494Z,57.13
2018-04-15T10:45:35.020Z,61.55
2018-04-15T10:48:07.587Z,51.37
2018-04-15T10:50:40.095Z,58.00
2018-04-15T10:53:12.716Z,57.90
2018-04-15T10:55:45.299Z,52.73
2018-04-15T10:58:17.839Z,56.17
2018-04-15T11:00:50.367Z,54.22
2018-04-15T11:03:22.891Z,49.25
2018-04-15T11:05:55.399Z,51.42
2018-04-15T11:08:28.032Z,46.67
2018-04-15T11:11:00.579Z,53.13
2018-04-15T11:13:33.123Z,57.03
2018-04-15T11:16:05.631Z,53.03
2018-04-15T11:18:38.155Z,51.67
2018-04-15T11:21:10.675Z,48.70
2018-04-15T11:23:43.240Z,54.50
2018-04-15T11:26:15.736Z,49.20
2018-04-15T11:28:48.317Z,53.17
2018-04-15T11:31:20.824Z,54.22
2018-04-15T11:33:53.385Z,55.45
2018-04-15T11:36:25.900Z,59.67
2018-04-15T11:38:58.436Z,54.40
2018-04-15T11:41:30.939Z,65.37
2018-04-15T11:44:03.525Z,49.58
2018-04-15T11:46:36.189Z,54.13
2018-04-15T11:49:08.727Z,49.40
2018-04-15T11:51:41.275Z,52.20
2018-04-15T11:54:13.791Z,45.88
2018-04-15T11:56:46.380Z,47.92
2018-04-15T11:59:18.941Z,60.33
2018-04-15T12:01:51.443Z,59.05
2018-04-15T12:04:23.971Z,54.97
2018-04-15T12:06:56.597Z,54.58
2018-04-15T12:09:29.133Z,61.85
2018-04-15T12:12:01.636Z,55.20
2018-04-15T12:14:34.162Z,54.92
2018-04-15T12:17:06.667Z,57.65
2018-04-15T12:19:39.208Z,59.22
2018-04-15T12:22:12.319Z,60.78
2018-04-15T12:24:45.424Z,56.75
2018-04-15T12:27:18.411Z,65.22
2018-04-15T12:29:51.112Z,58.65
2018-04-15T12:32:23.685Z,58.45
2018-04-15T12:34:56.244Z,60.42
2018-04-15T12:37:28.756Z,57.35
2018-04-15T12:40:01.301Z,58.92
2018-04-15T12:42:33.807Z,52.33
2018-04-15T12:45:06.411Z,61.13
2018-04-15T12:47:38.924Z,56.83
2018-04-15T12:50:11.474Z,57.00
2018-04-15T12:52:44.071Z,56.42
2018-04-15T12:55:16.649Z,71.75
2018-04-15T12:57:49.228Z,58.58
2018-04-15T13:00:21.875Z,59.90
2018-04-15T13:02:54.512Z,58.55
2018-04-15T13:05:27.092Z,55.88
2018-04-15T13:07:59.615Z,53.92
2018-04-15T13:10:32.146Z,54.08
2018-04-15T13:13:04.676Z,52.42
2018-04-15T13:15:37.607Z,50.17
2018-04-15T13:18:10.331Z,55.03
2018-04-15T13:20:42.897Z,49.58
2018-04-15T13:23:15.508Z,55.42
2018-04-15T13:25:48.019Z,50.63
2018-04-15T13:28:20.547Z,52.85
2018-04-15T13:30:53.047Z,55.95
2018-04-15T13:33:25.578Z,52.17
2018-04-15T13:35:58.084Z,57.42
2018-04-15T13:38:30.633Z,52.05
2018-04-15T13:41:03.200Z,49.70
2018-04-15T13:43:35.724Z,54.65
2018-04-15T13:46:08.249Z,50.08
2018-04-15T13:48:40.771Z,47.25
2018-04-15T13:51:13.341Z,49.80
2018-04-15T13:53:45.939Z,47.60
2018-04-15T13:56:18.528Z,50.28
2018-04-15T13:58:51.094Z,53.75
2018-04-15T14:01:23.605Z,52.33
2018-04-15T14:03:56.178Z,49.55
2018-04-15T14:06:28.746Z,49.88
2018-04-15T14:09:01.259Z,54.28
2018-04-15T14:11:33.763Z,46.13
2018-04-15T14:14:06.280Z,50.53
2018-04-15T14:16:38.784Z,43.60
2018-04-15T14:19:11.311Z,42.03
2018-04-15T14:21:43.895Z,42.20
2018-04-15T14:24:16.517Z,42.78
2018-04-15T14:26:49.023Z,44.40
2018-04-15T14:29:21.620Z,46.03
2018-04-15T14:31:54.132Z,41.15
2018-04-15T14:34:26.681Z,42.00
2018-04-15T14:36:59.184Z,42.42
2018-04-15T14:39:31.703Z,42.50
2018-04-15T14:42:04.220Z,40.70
2018-04-15T14:44:36.740Z,39.80
2018-04-15T14:47:09.248Z,39.45
2018-04-15T14:49:41.771Z,40.28
2018-04-15T14:52:14.284Z,40.88
2018-04-15T14:54:46.838Z,37.13
2018-04-15T14:57:19.355Z,37.33
2018-04-15T14:59:51.884Z,39.13
2018-04-15T15:02:24.376Z,40.25
2018-04-15T15:04:56.912Z,33.28
2018-04-15T15:07:29.419Z,33.90
2018-04-15T15:10:01.956Z,31.25
2018-04-15T15:12:34.465Z,34.80
2018-04-15T15:15:07.058Z,36.05
2018-04-15T15:17:39.569Z,32.92
2018-04-15T15:20:12.104Z,36.35
2018-04-15T15:22:44.749Z,33.38
2018-04-15T15:25:17.260Z,33.90
2018-04-15T15:27:49.759Z,34.58
2018-04-15T15:30:22.291Z,31.77
2018-04-15T15:32:54.800Z,32.17
2018-04-15T15:35:27.323Z,30.85
2018-04-15T15:37:59.831Z,32.58
2018-04-15T15:40:32.360Z,33.53
2018-04-15T15:43:04.868Z,32.00
2018-04-15T15:45:37.403Z,32.80
2018-04-15T15:48:09.956Z,31.87
2018-04-15T15:50:42.479Z,31.65
2018-04-15T15:53:14.994Z,32.35
2018-04-15T15:55:47.515Z,32.38
2018-04-15T15:58:20.087Z,32.72
2018-04-15T16:00:52.680Z,30.50
2018-04-15T16:03:25.177Z,30.80
2018-04-15T16:05:57.709Z,31.17
2018-04-15T16:08:30.239Z,31.50
2018-04-15T16:11:02.778Z,33.38
2018-04-15T16:13:35.288Z,30.55
2018-04-15T16:16:07.816Z,33.08
2018-04-15T16:18:40.382Z,33.95
2018-04-15T16:21:12.908Z,32.15
2018-04-15T16:23:45.457Z,31.65
2018-04-15T16:26:17.980Z,30.50
2018-04-15T16:28:50.520Z,32.03
2018-04-15T16:31:23.111Z,29.92
2018-04-15T16:33:55.695Z,29.12
2018-04-15T16:36:28.214Z,29.85
2018-04-15T16:39:00.729Z,28.85
2018-04-15T16:41:33.252Z,28.90
2018-04-15T16:44:05.762Z,30.30
2018-04-15T16:46:38.284Z,30.65
2018-04-15T16:49:10.903Z,31.40
2018-04-15T16:51:43.483Z,30.17
2018-04-15T16:54:16.008Z,30.73
2018-04-15T16:56:48.555Z,29.35
2018-04-15T16:59:21.092Z,30.75
2018-04-15T17:01:53.591Z,29.15
2018-04-15T17:04:26.113Z,30.02
2018-04-15T17:06:58.692Z,29.87
2018-04-15T17:09:31.207Z,28.40
2018-04-15T17:12:03.788Z,29.05
2018-04-15T17:14:36.367Z,29.23
2018-04-15T17:17:08.879Z,31.27
2018-04-15T17:19:41.408Z,29.80
2018-04-15T17:22:13.922Z,33.78
2018-04-15T17:24:46.523Z,29.87
2018-04-15T17:27:19.032Z,30.15
2018-04-15T17:29:51.664Z,29.27
2018-04-15T17:32:24.192Z,32.95
2018-04-15T17:34:56.737Z,31.02
2018-04-15T17:37:29.852Z,31.65
2018-04-15T17:40:02.439Z,32.28
2018-04-15T17:42:35.011Z,32.67
2018-04-15T17:45:07.545Z,31.25
2018-04-15T17:47:40.058Z,30.52
2018-04-15T17:50:12.588Z,34.75
2018-04-15T17:52:45.095Z,33.17
2018-04-15T17:55:18.060Z,32.03
2018-04-15T17:57:50.642Z,34.65
2018-04-15T18:00:23.437Z,33.22
2018-04-15T18:02:56.007Z,34.58
2018-04-15T18:05:28.648Z,32.67
2018-04-15T18:08:01.187Z,32.90
2018-04-15T18:10:33.768Z,34.67
2018-04-15T18:13:06.269Z,32.05
2018-04-15T18:15:38.826Z,35.38
2018-04-15T18:18:11.331Z,33.80
2018-04-15T18:20:44.009Z,35.58
2018-04-15T18:23:16.655Z,33.97
2018-04-15T18:25:49.316Z,31.98
2018-04-15T18:28:22.091Z,37.22
2018-04-15T18:30:54.624Z,36.90
2018-04-15T18:33:27.122Z,38.90
2018-04-15T18:35:59.719Z,37.65
2018-04-15T18:38:32.401Z,37.63
2018-04-15T18:41:05.006Z,37.67
2018-04-15T18:43:37.600Z,38.45
2018-04-15T18:46:10.142Z,37.42
2018-04-15T18:48:42.644Z,39.03
2018-04-15T18:51:15.247Z,38.67
2018-04-15T18:53:47.752Z,32.53
2018-04-15T18:56:20.314Z,47.17
2018-04-15T18:58:52.826Z,30.15
2018-04-15T19:01:25.355Z,31.62
2018-04-15T19:03:57.858Z,39.65
2018-04-15T19:06:30.379Z,34.40
2018-04-15T19:09:02.883Z,32.90
2018-04-15T19:11:35.404Z,36.95
2018-04-15T19:14:08.011Z,32.22
2018-04-15T19:16:40.544Z,34.17
2018-04-15T19:19:13.071Z,36.85
2018-04-15T19:21:45.592Z,37.08
2018-04-15T19:24:18.095Z,30.77
2018-04-15T19:26:50.615Z,34.63
2018-04-15T19:29:23.130Z,34.88
2018-04-15T19:31:55.700Z,30.30
2018-04-15T19:34:28.282Z,31.70
2018-04-15T19:37:00.801Z,35.85
2018-04-15T19:39:33.316Z,35.97
2018-04-15T19:42:05.844Z,38.65
2018-04-15T19:44:38.355Z,50.03
2018-04-15T19:47:10.916Z,62.15
2018-04-15T19:49:43.422Z,71.47
2018-04-15T19:52:15.944Z,27.50
2018-04-15T19:54:48.452Z,26.27
2018-04-15T19:57:20.987Z,34.00
2018-04-15T19:59:53.488Z,21.17
2018-04-15T20:02:26.012Z,20.23
2018-04-15T20:04:58.552Z,32.13
2018-04-15T20:07:31.071Z,31.30
2018-04-15T20:10:03.582Z,25.57
2018-04-15T20:12:36.154Z,31.37
2018-04-15T20:15:08.740Z,26.20
2018-04-15T20:17:41.326Z,22.67
2018-04-15T20:20:13.880Z,37.03
2018-04-15T20:22:46.456Z,37.23
2018-04-15T20:25:18.982Z,40.70
2018-04-15T20:27:51.504Z,34.83
2018-04-15T20:30:24.059Z,32.83
2018-04-15T20:32:56.576Z,34.40
2018-04-15T20:35:29.129Z,32.33
2018-04-15T20:38:01.706Z,33.30
2018-04-15T20:40:34.239Z,68.67
2018-04-15T20:43:06.742Z,42.27
2018-04-15T20:45:39.272Z,34.87
2018-04-15T20:48:11.788Z,52.07
2018-04-15T20:50:44.312Z,37.93
2018-04-15T20:53:16.826Z,46.13
2018-04-15T20:55:49.351Z,32.73
2018-04-15T20:58:21.847Z,37.40
2018-04-15T21:00:54.376Z,23.97
2018-04-15T21:03:26.888Z,27.97
2018-04-15T21:05:59.418Z,19.67
2018-04-15T21:08:31.917Z,31.93
2018-04-15T21:11:04.524Z,46.00
2018-04-15T21:13:37.039Z,52.73
2018-04-15T21:16:09.592Z,44.13
2018-04-15T21:18:42.088Z,32.67
2018-04-15T21:21:14.611Z,20.63
2018-04-15T21:23:47.214Z,65.23
2018-04-15T21:26:19.830Z,38.13
2018-04-15T21:28:52.406Z,43.33
2018-04-15T21:31:24.997Z,25.03
2018-04-15T21:33:57.502Z,38.37
2018-04-15T21:36:30.027Z,54.83
2018-04-15T21:39:02.537Z,30.57
2018-04-15T21:41:35.063Z,56.77
2018-04-15T21:44:07.570Z,46.77
2018-04-15T21:46:40.103Z,34.17
2018-04-15T21:49:12.608Z,34.87
2018-04-15T21:51:45.137Z,36.47
2018-04-15T21:54:17.644Z,83.20
2018-04-15T21:56:50.185Z,99.77
2018-04-15T21:59:22.690Z,25.97
2018-04-15T22:01:55.224Z,31.60
2018-04-15T22:04:27.732Z,34.77
2018-04-15T22:07:00.397Z,33.43
2018-04-15T22:09:32.894Z,27.80
2018-04-15T22:12:14.480Z,52.53
2018-04-15T22:14:47.081Z,39.93
2018-04-15T22:17:20.580Z,43.37
2018-04-15T22:19:53.080Z,68.57
2018-04-15T22:22:25.607Z,31.63
2018-04-15T22:24:58.108Z,35.70
2018-04-15T22:27:30.636Z,85.53
2018-04-15T22:30:03.148Z,97.20
2018-04-15T22:32:35.671Z,29.47
2018-04-15T22:35:08.167Z,53.60
2018-04-15T22:37:40.754Z,95.27
2018-04-15T22:40:13.272Z,38.47
2018-04-15T22:42:46.112Z,24.20
2018-04-15T22:45:18.663Z,36.53
2018-04-15T22:47:56.779Z,26.97
2018-04-15T22:50:38.001Z,29.17
2018-04-15T22:53:10.584Z,38.93
2018-04-15T22:55:43.088Z,26.30
2018-04-15T22:58:15.609Z,23.30
2018-04-15T23:00:48.110Z,30.40
2018-04-15T23:03:20.715Z,33.50
2018-04-15T23:05:53.212Z,23.90
2018-04-15T23:08:25.733Z,34.23
2018-04-15T23:10:58.249Z,53.90
2018-04-15T23:13:30.773Z,39.53
2018-04-15T23:16:03.285Z,37.87
2018-04-15T23:18:35.808Z,45.00
2018-04-15T23:21:08.344Z,51.60
2018-04-15T23:23:40.867Z,26.00
2018-04-15T23:26:13.368Z,53.33
2018-04-15T23:28:45.902Z,52.00
2018-04-15T23:31:18.415Z,99.50
2018-04-15T23:33:50.959Z,81.07
2018-04-15T23:36:23.471Z,67.40
2018-04-15T23:38:56.003Z,35.40
2018-04-15T23:41:28.508Z,38.70
2018-04-15T23:44:01.045Z,43.93
2018-04-15T23:46:33.560Z,75.63
2018-04-15T23:49:06.194Z,83.10
2018-04-15T23:51:38.771Z,114.73
2018-04-15T23:54:11.289Z,44.23
2018-04-15T23:56:49.400Z,51.03
2018-04-15T23:59:21.956Z,123.67
